world map with SCON marked

SCON - Airport

This information may not be accurate or current and is not valid for navigation or flight planning. No warranty of fitness for any purpose is made or implied.

flag of Los Lagosflag of Chile

Donate via PayPal

Additional information is available on the NEW Great Circle Mapper

Location
City:  Quellón, Los Lagos, Chile
ICAO:SCON

Details
Type:Airport (Aerodrome, Airfield)
Latitude:43°08'07"S (-43.135277)
Longitude:73°37'56"W (-73.632221)
Elevation:39 ft (12 m)
Runways:1
Longest:4265 ft (1300 m)

Weather
METAR:SCON  041400Z VRB02KT CAVOK 23/15 Q1009

Related Locations
Nearby:
Farthest:ZMKB: 12417 mi / 19983 km
Khanbogd [Khanbumbat Airport (Oyu Tolgoi Airport, Oyut Airport)], 053, MN

Find:

   beyond  
but within

Other Information
Maps:
Sources:

  


 


Great Circle Mapper   Great Circle Mapper
Great Circle Mapper FAQ   Great Circle Mapper FAQ
  Karl's Home Page
KLS²   KLS² Home
   GC on Facebook
Airlines of the World   Airlines of the World
Donate via PayPal


Copyright © 2004-2020, Karl L. Swartz. All rights reserved.
All trademarks mentioned herein belong to their respective owners.

Please see credits for attribution and copyright information.

Karl Swartz <karl@kls2.com>
  Powered by FreeBSD
Valid HTML 4.01!
Labeled with ICRA
hCard Microformat
Geo Microformat